sensor_id;sensor_type;location;lat;lon;timestamp;pressure;altitude;pressure_sealevel;temperature;humidity
40850;BME280;26571;41.610;25.380;2023-02-20T00:00:40;98434.75;;;11.68;78.79
40850;BME280;26571;41.610;25.380;2023-02-20T00:03:06;98432.50;;;11.57;79.52
40850;BME280;26571;41.610;25.380;2023-02-20T00:05:32;98433.53;;;11.48;80.58
40850;BME280;26571;41.610;25.380;2023-02-20T00:07:58;98433.41;;;11.41;81.37
40850;BME280;26571;41.610;25.380;2023-02-20T00:10:23;98432.09;;;11.37;82.08
40850;BME280;26571;41.610;25.380;2023-02-20T00:12:49;98424.31;;;11.44;81.62
40850;BME280;26571;41.610;25.380;2023-02-20T00:15:17;98396.09;;;11.21;81.25
40850;BME280;26571;41.610;25.380;2023-02-20T00:17:44;98397.78;;;11.14;82.05
40850;BME280;26571;41.610;25.380;2023-02-20T00:20:16;98441.78;;;11.45;81.85
40850;BME280;26571;41.610;25.380;2023-02-20T00:22:42;98432.38;;;11.50;81.02
40850;BME280;26571;41.610;25.380;2023-02-20T00:25:08;98458.53;;;11.60;80.58
40850;BME280;26571;41.610;25.380;2023-02-20T00:27:33;98464.63;;;11.60;78.38
40850;BME280;26571;41.610;25.380;2023-02-20T00:29:58;98456.13;;;11.73;78.01
40850;BME280;26571;41.610;25.380;2023-02-20T00:32:24;98461.38;;;11.81;76.47
40850;BME280;26571;41.610;25.380;2023-02-20T00:34:49;98439.41;;;11.58;76.75
40850;BME280;26571;41.610;25.380;2023-02-20T00:37:15;98463.06;;;11.82;76.75
40850;BME280;26571;41.610;25.380;2023-02-20T00:39:40;98459.19;;;11.93;76.07
40850;BME280;26571;41.610;25.380;2023-02-20T00:42:06;98421.75;;;11.67;77.58
40850;BME280;26571;41.610;25.380;2023-02-20T00:44:31;98457.03;;;11.65;79.66
40850;BME280;26571;41.610;25.380;2023-02-20T00:46:56;98441.06;;;11.59;80.05
40850;BME280;26571;41.610;25.380;2023-02-20T00:49:22;98440.19;;;11.67;79.85
40850;BME280;26571;41.610;25.380;2023-02-20T00:51:48;98441.16;;;11.74;80.32
40850;BME280;26571;41.610;25.380;2023-02-20T00:54:14;98431.13;;;11.69;79.36
40850;BME280;26571;41.610;25.380;2023-02-20T00:56:39;98440.97;;;11.75;79.82
40850;BME280;26571;41.610;25.380;2023-02-20T00:59:05;98442.63;;;11.76;79.94
40850;BME280;26571;41.610;25.380;2023-02-20T01:01:31;98444.25;;;11.77;79.93
40850;BME280;26571;41.610;25.380;2023-02-20T01:03:56;98452.34;;;11.76;79.97
40850;BME280;26571;41.610;25.380;2023-02-20T01:06:22;98451.84;;;11.80;79.17
40850;BME280;26571;41.610;25.380;2023-02-20T01:08:47;98445.88;;;11.86;79.82
40850;BME280;26571;41.610;25.380;2023-02-20T01:11:12;98414.31;;;11.70;79.22
40850;BME280;26571;41.610;25.380;2023-02-20T01:13:38;98445.25;;;11.76;80.23
40850;BME280;26571;41.610;25.380;2023-02-20T01:16:04;98442.84;;;11.67;81.37
40850;BME280;26571;41.610;25.380;2023-02-20T01:18:30;98432.09;;;11.68;81.26
40850;BME280;26571;41.610;25.380;2023-02-20T01:20:55;98441.75;;;11.53;81.83
40850;BME280;26571;41.610;25.380;2023-02-20T01:23:21;98441.50;;;11.39;82.66
40850;BME280;26571;41.610;25.380;2023-02-20T01:25:46;98436.94;;;11.17;83.47
40850;BME280;26571;41.610;25.380;2023-02-20T01:28:12;98451.13;;;11.16;84.79
40850;BME280;26571;41.610;25.380;2023-02-20T01:30:37;98449.81;;;11.12;84.50
40850;BME280;26571;41.610;25.380;2023-02-20T01:33:03;98454.44;;;11.10;84.07
40850;BME280;26571;41.610;25.380;2023-02-20T01:35:28;98458.41;;;11.06;85.61
40850;BME280;26571;41.610;25.380;2023-02-20T01:37:58;98442.91;;;11.11;85.87
40850;BME280;26571;41.610;25.380;2023-02-20T01:40:25;98437.97;;;11.08;85.23
40850;BME280;26571;41.610;25.380;2023-02-20T01:42:50;98450.47;;;11.14;85.14
40850;BME280;26571;41.610;25.380;2023-02-20T01:47:44;98450.00;;;11.02;86.43
40850;BME280;26571;41.610;25.380;2023-02-20T01:50:11;98443.59;;;11.05;86.42
40850;BME280;26571;41.610;25.380;2023-02-20T01:52:38;98445.72;;;11.09;85.96
40850;BME280;26571;41.610;25.380;2023-02-20T01:57:34;98447.38;;;11.02;86.66
40850;BME280;26571;41.610;25.380;2023-02-20T02:00:13;98443.13;;;10.85;87.79
40850;BME280;26571;41.610;25.380;2023-02-20T02:02:41;98441.31;;;10.77;88.57
40850;BME280;26571;41.610;25.380;2023-02-20T02:05:09;98442.50;;;10.75;88.71
40850;BME280;26571;41.610;25.380;2023-02-20T02:07:36;98447.59;;;10.76;88.84
40850;BME280;26571;41.610;25.380;2023-02-20T02:10:06;98460.25;;;10.81;88.57
40850;BME280;26571;41.610;25.380;2023-02-20T02:12:32;98463.38;;;10.84;87.86
40850;BME280;26571;41.610;25.380;2023-02-20T02:14:58;98428.84;;;10.79;86.95
40850;BME280;26571;41.610;25.380;2023-02-20T02:20:34;98466.56;;;11.27;85.14
40850;BME280;26571;41.610;25.380;2023-02-20T02:28:43;98481.88;;;11.32;83.48
40850;BME280;26571;41.610;25.380;2023-02-20T02:41:53;98496.56;;;11.18;78.23
40850;BME280;26571;41.610;25.380;2023-02-20T02:44:31;98508.16;;;10.76;82.33
40850;BME280;26571;41.610;25.380;2023-02-20T02:47:36;98495.31;;;10.73;82.80
40850;BME280;26571;41.610;25.380;2023-02-20T02:50:10;98485.78;;;10.56;82.32
40850;BME280;26571;41.610;25.380;2023-02-20T02:52:37;98512.75;;;10.82;82.05
40850;BME280;26571;41.610;25.380;2023-02-20T02:55:17;98517.34;;;10.88;80.91
40850;BME280;26571;41.610;25.380;2023-02-20T02:57:43;98517.84;;;10.92;80.03
40850;BME280;26571;41.610;25.380;2023-02-20T03:00:11;98518.00;;;10.99;79.72
40850;BME280;26571;41.610;25.380;2023-02-20T03:02:49;98528.56;;;10.91;79.73
40850;BME280;26571;41.610;25.380;2023-02-20T03:05:17;98528.72;;;10.89;80.90
40850;BME280;26571;41.610;25.380;2023-02-20T03:07:47;98531.66;;;11.02;80.69
40850;BME280;26571;41.610;25.380;2023-02-20T03:10:19;98510.44;;;10.87;80.77
40850;BME280;26571;41.610;25.380;2023-02-20T03:13:00;98542.69;;;11.06;81.35
40850;BME280;26571;41.610;25.380;2023-02-20T03:15:30;98547.28;;;11.04;81.61
40850;BME280;26571;41.610;25.380;2023-02-20T03:18:08;98536.75;;;11.04;81.49
40850;BME280;26571;41.610;25.380;2023-02-20T03:20:42;98544.19;;;11.00;82.87
40850;BME280;26571;41.610;25.380;2023-02-20T03:23:13;98528.88;;;10.87;81.92
40850;BME280;26571;41.610;25.380;2023-02-20T03:25:50;98546.34;;;10.80;84.07
40850;BME280;26571;41.610;25.380;2023-02-20T03:28:23;98553.56;;;10.78;84.03
40850;BME280;26571;41.610;25.380;2023-02-20T03:30:59;98549.44;;;10.84;84.02
40850;BME280;26571;41.610;25.380;2023-02-20T03:33:33;98548.94;;;10.97;81.77
40850;BME280;26571;41.610;25.380;2023-02-20T03:36:47;98510.47;;;10.79;81.23
40850;BME280;26571;41.610;25.380;2023-02-20T03:39:37;98545.00;;;10.93;81.48
40850;BME280;26571;41.610;25.380;2023-02-20T03:42:24;98547.97;;;10.81;81.68
40850;BME280;26571;41.610;25.380;2023-02-20T03:45:09;98549.94;;;10.63;84.07
40850;BME280;26571;41.610;25.380;2023-02-20T03:47:36;98555.84;;;10.41;84.70
40850;BME280;26571;41.610;25.380;2023-02-20T03:50:04;98565.44;;;10.07;84.76
40850;BME280;26571;41.610;25.380;2023-02-20T03:52:31;98577.09;;;10.05;85.91
40850;BME280;26571;41.610;25.380;2023-02-20T03:54:57;98588.78;;;10.10;86.23
40850;BME280;26571;41.610;25.380;2023-02-20T03:57:32;98578.78;;;10.22;85.49
40850;BME280;26571;41.610;25.380;2023-02-20T04:00:04;98546.16;;;9.99;85.30
40850;BME280;26571;41.610;25.380;2023-02-20T04:02:36;98560.97;;;10.00;85.28
40850;BME280;26571;41.610;25.380;2023-02-20T04:05:06;98548.28;;;9.87;86.83
40850;BME280;26571;41.610;25.380;2023-02-20T04:08:02;98576.94;;;10.06;86.56
40850;BME280;26571;41.610;25.380;2023-02-20T04:10:35;98572.53;;;10.15;85.44
40850;BME280;26571;41.610;25.380;2023-02-20T04:13:03;98564.09;;;9.61;86.50
40850;BME280;26571;41.610;25.380;2023-02-20T04:15:29;98584.25;;;9.26;88.11
40850;BME280;26571;41.610;25.380;2023-02-20T04:18:07;98591.28;;;9.00;88.77
40850;BME280;26571;41.610;25.380;2023-02-20T04:20:34;98587.53;;;8.85;91.85
40850;BME280;26571;41.610;25.380;2023-02-20T04:23:09;98585.16;;;8.73;97.88
40850;BME280;26571;41.610;25.380;2023-02-20T04:25:57;98599.84;;;8.84;98.03
40850;BME280;26571;41.610;25.380;2023-02-20T04:28:24;98610.34;;;9.02;97.29
40850;BME280;26571;41.610;25.380;2023-02-20T04:30:50;98609.63;;;9.18;96.04
40850;BME280;26571;41.610;25.380;2023-02-20T04:33:16;98614.72;;;9.37;95.55
40850;BME280;26571;41.610;25.380;2023-02-20T04:35:42;98611.41;;;9.61;94.21
40850;BME280;26571;41.610;25.380;2023-02-20T04:38:08;98608.41;;;9.82;91.52
40850;BME280;26571;41.610;25.380;2023-02-20T04:40:33;98613.53;;;9.92;90.23
40850;BME280;26571;41.610;25.380;2023-02-20T04:42:59;98612.06;;;9.97;88.67
40850;BME280;26571;41.610;25.380;2023-02-20T04:45:24;98609.63;;;10.04;88.47
40850;BME280;26571;41.610;25.380;2023-02-20T04:47:50;98598.66;;;10.17;87.20
40850;BME280;26571;41.610;25.380;2023-02-20T04:50:23;98594.75;;;10.21;84.66
40850;BME280;26571;41.610;25.380;2023-02-20T04:52:49;98579.94;;;10.20;84.22
40850;BME280;26571;41.610;25.380;2023-02-20T04:55:14;98591.72;;;10.07;84.34
40850;BME280;26571;41.610;25.380;2023-02-20T04:57:40;98584.31;;;10.03;84.57
40850;BME280;26571;41.610;25.380;2023-02-20T05:00:06;98554.81;;;9.75;84.57
40850;BME280;26571;41.610;25.380;2023-02-20T05:02:38;98610.72;;;9.85;85.18
40850;BME280;26571;41.610;25.380;2023-02-20T05:05:05;98619.09;;;9.89;83.66
40850;BME280;26571;41.610;25.380;2023-02-20T05:07:32;98625.75;;;10.01;83.02
40850;BME280;26571;41.610;25.380;2023-02-20T05:09:58;98626.72;;;10.00;81.65
40850;BME280;26571;41.610;25.380;2023-02-20T05:12:24;98625.97;;;9.81;83.03
40850;BME280;26571;41.610;25.380;2023-02-20T05:14:49;98631.88;;;9.75;83.22
40850;BME280;26571;41.610;25.380;2023-02-20T05:17:15;98626.34;;;9.61;82.77
40850;BME280;26571;41.610;25.380;2023-02-20T05:19:40;98646.28;;;9.71;82.26
40850;BME280;26571;41.610;25.380;2023-02-20T05:22:10;98638.50;;;9.62;82.63
40850;BME280;26571;41.610;25.380;2023-02-20T05:24:46;98638.06;;;9.66;83.15
40850;BME280;26571;41.610;25.380;2023-02-20T05:27:13;98646.13;;;9.47;83.07
40850;BME280;26571;41.610;25.380;2023-02-20T05:29:47;98632.34;;;9.45;83.28
40850;BME280;26571;41.610;25.380;2023-02-20T05:32:14;98583.59;;;8.80;84.20
40850;BME280;26571;41.610;25.380;2023-02-20T05:34:41;98604.34;;;8.74;86.43
40850;BME280;26571;41.610;25.380;2023-02-20T05:37:07;98633.06;;;8.58;88.06
40850;BME280;26571;41.610;25.380;2023-02-20T05:39:32;98648.13;;;8.38;90.54
40850;BME280;26571;41.610;25.380;2023-02-20T05:41:58;98644.31;;;8.22;90.27
40850;BME280;26571;41.610;25.380;2023-02-20T05:44:23;98688.38;;;8.09;93.09
40850;BME280;26571;41.610;25.380;2023-02-20T05:46:49;98662.94;;;8.19;95.10
40850;BME280;26571;41.610;25.380;2023-02-20T05:49:16;98677.19;;;8.44;94.66
40850;BME280;26571;41.610;25.380;2023-02-20T05:51:42;98685.59;;;8.93;93.27
40850;BME280;26571;41.610;25.380;2023-02-20T05:54:07;98685.94;;;9.52;88.62
40850;BME280;26571;41.610;25.380;2023-02-20T05:56:33;98691.50;;;9.75;86.88
40850;BME280;26571;41.610;25.380;2023-02-20T05:58:59;98693.72;;;9.88;86.29
40850;BME280;26571;41.610;25.380;2023-02-20T06:01:26;98687.56;;;9.79;84.40
40850;BME280;26571;41.610;25.380;2023-02-20T06:03:52;98690.72;;;9.82;83.90
40850;BME280;26571;41.610;25.380;2023-02-20T06:06:18;98674.38;;;9.45;84.63
40850;BME280;26571;41.610;25.380;2023-02-20T06:08:43;98637.56;;;9.19;86.60
40850;BME280;26571;41.610;25.380;2023-02-20T06:11:10;98678.28;;;9.41;87.41
40850;BME280;26571;41.610;25.380;2023-02-20T06:13:39;98688.63;;;9.60;86.12
40850;BME280;26571;41.610;25.380;2023-02-20T06:16:06;98697.78;;;9.82;85.08
40850;BME280;26571;41.610;25.380;2023-02-20T06:18:31;98704.06;;;11.16;81.58
40850;BME280;26571;41.610;25.380;2023-02-20T06:20:57;98713.50;;;13.02;71.67
40850;BME280;26571;41.610;25.380;2023-02-20T06:23:22;98723.84;;;13.80;60.37
40850;BME280;26571;41.610;25.380;2023-02-20T06:25:48;98733.84;;;14.67;60.10
40850;BME280;26571;41.610;25.380;2023-02-20T06:28:13;98742.53;;;15.76;54.31
40850;BME280;26571;41.610;25.380;2023-02-20T06:30:40;98742.88;;;17.05;51.37
40850;BME280;26571;41.610;25.380;2023-02-20T06:33:05;98726.16;;;18.37;47.47
40850;BME280;26571;41.610;25.380;2023-02-20T06:35:30;98717.31;;;19.01;44.77
40850;BME280;26571;41.610;25.380;2023-02-20T06:37:56;98718.53;;;19.37;44.45
40850;BME280;26571;41.610;25.380;2023-02-20T06:40:21;98734.88;;;19.79;44.27
40850;BME280;26571;41.610;25.380;2023-02-20T06:42:47;98743.56;;;20.79;42.44
40850;BME280;26571;41.610;25.380;2023-02-20T06:45:12;98716.28;;;20.71;40.92
40850;BME280;26571;41.610;25.380;2023-02-20T06:47:38;98714.31;;;19.23;43.13
40850;BME280;26571;41.610;25.380;2023-02-20T06:50:03;98716.88;;;19.04;45.02
40850;BME280;26571;41.610;25.380;2023-02-20T06:52:29;98719.22;;;19.26;44.49
40850;BME280;26571;41.610;25.380;2023-02-20T06:54:54;98710.47;;;19.12;44.07
40850;BME280;26571;41.610;25.380;2023-02-20T06:57:20;98723.28;;;19.35;43.85
40850;BME280;26571;41.610;25.380;2023-02-20T06:59:45;98723.41;;;19.08;44.69
40850;BME280;26571;41.610;25.380;2023-02-20T07:02:14;98717.34;;;19.58;43.97
40850;BME280;26571;41.610;25.380;2023-02-20T07:04:40;98710.41;;;20.25;42.65
40850;BME280;26571;41.610;25.380;2023-02-20T07:07:05;98722.16;;;20.79;41.65
40850;BME280;26571;41.610;25.380;2023-02-20T07:09:31;98735.03;;;21.61;39.68
40850;BME280;26571;41.610;25.380;2023-02-20T07:11:56;98721.09;;;22.41;38.49
40850;BME280;26571;41.610;25.380;2023-02-20T07:14:22;98709.34;;;22.30;37.99
40850;BME280;26571;41.610;25.380;2023-02-20T07:16:48;98708.56;;;23.10;36.94
40850;BME280;26571;41.610;25.380;2023-02-20T07:19:13;98709.97;;;22.73;36.04
40850;BME280;26571;41.610;25.380;2023-02-20T07:21:39;98685.69;;;22.15;36.60
40850;BME280;26571;41.610;25.380;2023-02-20T07:24:05;98706.88;;;22.05;36.21
40850;BME280;26571;41.610;25.380;2023-02-20T07:26:30;98714.63;;;20.33;40.06
40850;BME280;26571;41.610;25.380;2023-02-20T07:28:57;98708.97;;;19.54;41.60
40850;BME280;26571;41.610;25.380;2023-02-20T07:31:23;98684.44;;;17.85;45.34
40850;BME280;26571;41.610;25.380;2023-02-20T07:33:49;98701.50;;;16.83;48.50
40850;BME280;26571;41.610;25.380;2023-02-20T07:36:15;98715.63;;;16.48;51.06
40850;BME280;26571;41.610;25.380;2023-02-20T07:38:40;98716.88;;;16.94;49.46
40850;BME280;26571;41.610;25.380;2023-02-20T07:41:07;98711.22;;;16.69;49.52
40850;BME280;26571;41.610;25.380;2023-02-20T07:43:33;98679.69;;;16.52;48.71
40850;BME280;26571;41.610;25.380;2023-02-20T07:45:58;98709.38;;;17.17;47.25
40850;BME280;26571;41.610;25.380;2023-02-20T07:48:24;98719.25;;;17.56;44.70
40850;BME280;26571;41.610;25.380;2023-02-20T07:50:49;98717.81;;;17.61;40.81
40850;BME280;26571;41.610;25.380;2023-02-20T07:53:17;98708.16;;;17.26;35.97
40850;BME280;26571;41.610;25.380;2023-02-20T07:55:43;98694.13;;;18.44;36.23
40850;BME280;26571;41.610;25.380;2023-02-20T07:58:09;98701.19;;;19.78;34.45
40850;BME280;26571;41.610;25.380;2023-02-20T08:00:35;98711.59;;;21.14;33.42
40850;BME280;26571;41.610;25.380;2023-02-20T08:03:00;98698.69;;;22.47;30.56
40850;BME280;26571;41.610;25.380;2023-02-20T08:05:26;98690.28;;;23.24;25.61
40850;BME280;26571;41.610;25.380;2023-02-20T08:07:52;98696.06;;;24.00;25.51
40850;BME280;26571;41.610;25.380;2023-02-20T08:10:21;98670.13;;;24.11;26.69
40850;BME280;26571;41.610;25.380;2023-02-20T08:12:48;98684.91;;;24.08;25.14
40850;BME280;26571;41.610;25.380;2023-02-20T08:15:14;98686.47;;;24.43;24.98
40850;BME280;26571;41.610;25.380;2023-02-20T08:17:40;98693.34;;;24.78;24.37
40850;BME280;26571;41.610;25.380;2023-02-20T08:20:07;98672.13;;;24.59;23.55
40850;BME280;26571;41.610;25.380;2023-02-20T08:22:33;98654.53;;;23.91;22.48
40850;BME280;26571;41.610;25.380;2023-02-20T08:24:59;98698.13;;;23.42;20.98
40850;BME280;26571;41.610;25.380;2023-02-20T08:27:26;98697.72;;;23.05;21.33
40850;BME280;26571;41.610;25.380;2023-02-20T08:29:54;98706.41;;;22.32;21.89
40850;BME280;26571;41.610;25.380;2023-02-20T08:32:19;98695.16;;;22.18;23.00
40850;BME280;26571;41.610;25.380;2023-02-20T08:34:45;98701.53;;;22.05;21.80
40850;BME280;26571;41.610;25.380;2023-02-20T08:37:10;98703.84;;;21.90;23.27
40850;BME280;26571;41.610;25.380;2023-02-20T08:39:36;98689.75;;;22.06;23.03
40850;BME280;26571;41.610;25.380;2023-02-20T08:42:01;98702.56;;;21.92;22.98
40850;BME280;26571;41.610;25.380;2023-02-20T08:44:27;98658.16;;;22.08;22.47
40850;BME280;26571;41.610;25.380;2023-02-20T08:46:52;98687.03;;;22.53;22.53
40850;BME280;26571;41.610;25.380;2023-02-20T08:49:18;98688.84;;;22.64;21.55
40850;BME280;26571;41.610;25.380;2023-02-20T08:51:45;98679.88;;;22.87;22.15
40850;BME280;26571;41.610;25.380;2023-02-20T08:54:11;98682.16;;;23.07;20.26
40850;BME280;26571;41.610;25.380;2023-02-20T08:56:37;98683.47;;;23.05;21.22
40850;BME280;26571;41.610;25.380;2023-02-20T08:59:02;98681.84;;;23.04;21.66
40850;BME280;26571;41.610;25.380;2023-02-20T09:01:28;98675.34;;;23.16;20.89
40850;BME280;26571;41.610;25.380;2023-02-20T09:03:53;98679.78;;;23.23;20.86
40850;BME280;26571;41.610;25.380;2023-02-20T09:06:19;98695.56;;;23.36;21.69
40850;BME280;26571;41.610;25.380;2023-02-20T09:08:45;98687.75;;;23.51;21.74
40850;BME280;26571;41.610;25.380;2023-02-20T09:11:10;98690.38;;;23.63;20.26
40850;BME280;26571;41.610;25.380;2023-02-20T09:13:43;98651.44;;;23.32;20.97
40850;BME280;26571;41.610;25.380;2023-02-20T09:16:10;98683.06;;;23.58;20.74
40850;BME280;26571;41.610;25.380;2023-02-20T09:18:36;98692.84;;;23.64;21.00
40850;BME280;26571;41.610;25.380;2023-02-20T09:21:01;98694.94;;;23.62;19.39
40850;BME280;26571;41.610;25.380;2023-02-20T09:23:27;98689.72;;;23.56;18.77
40850;BME280;26571;41.610;25.380;2023-02-20T09:25:52;98696.47;;;22.96;19.45
40850;BME280;26571;41.610;25.380;2023-02-20T09:28:18;98694.13;;;22.48;19.47
40850;BME280;26571;41.610;25.380;2023-02-20T09:30:43;98690.63;;;22.59;20.68
40850;BME280;26571;41.610;25.380;2023-02-20T09:33:09;98697.78;;;22.82;20.79
40850;BME280;26571;41.610;25.380;2023-02-20T09:35:34;98691.38;;;22.83;19.72
40850;BME280;26571;41.610;25.380;2023-02-20T09:38:00;98688.44;;;22.84;18.49
40850;BME280;26571;41.610;25.380;2023-02-20T09:40:28;98684.97;;;23.12;18.57
40850;BME280;26571;41.610;25.380;2023-02-20T09:45:55;98687.94;;;22.99;18.16
40850;BME280;26571;41.610;25.380;2023-02-20T09:51:13;98679.16;;;23.04;18.34
40850;BME280;26571;41.610;25.380;2023-02-20T09:53:56;98682.38;;;23.17;17.75
40850;BME280;26571;41.610;25.380;2023-02-20T09:56:26;98695.69;;;22.84;18.05
40850;BME280;26571;41.610;25.380;2023-02-20T10:01:25;98679.03;;;22.30;17.78
40850;BME280;26571;41.610;25.380;2023-02-20T10:03:57;98684.53;;;22.11;17.07
40850;BME280;26571;41.610;25.380;2023-02-20T10:06:34;98663.31;;;21.98;16.47
40850;BME280;26571;41.610;25.380;2023-02-20T10:09:01;98693.50;;;22.29;17.56
40850;BME280;26571;41.610;25.380;2023-02-20T10:11:55;98702.06;;;22.54;18.87
40850;BME280;26571;41.610;25.380;2023-02-20T10:17:41;98710.94;;;22.95;16.90
40850;BME280;26571;41.610;25.380;2023-02-20T10:20:19;98711.59;;;23.14;16.98
40850;BME280;26571;41.610;25.380;2023-02-20T10:22:55;98704.03;;;23.28;15.73
40850;BME280;26571;41.610;25.380;2023-02-20T10:25:32;98701.44;;;23.33;16.91
40850;BME280;26571;41.610;25.380;2023-02-20T10:28:05;98687.00;;;23.22;15.79
40850;BME280;26571;41.610;25.380;2023-02-20T10:30:37;98687.09;;;23.27;17.09
40850;BME280;26571;41.610;25.380;2023-02-20T10:33:22;98678.97;;;23.39;16.56
40850;BME280;26571;41.610;25.380;2023-02-20T10:35:55;98654.72;;;23.34;16.48
40850;BME280;26571;41.610;25.380;2023-02-20T10:38:26;98661.78;;;23.40;16.00
40850;BME280;26571;41.610;25.380;2023-02-20T10:41:09;98661.94;;;23.50;16.01
40850;BME280;26571;41.610;25.380;2023-02-20T10:43:44;98666.59;;;23.55;17.90
40850;BME280;26571;41.610;25.380;2023-02-20T10:48:46;98652.28;;;23.49;16.49
40850;BME280;26571;41.610;25.380;2023-02-20T10:53:48;98659.41;;;23.10;17.18
40850;BME280;26571;41.610;25.380;2023-02-20T10:56:31;98681.69;;;23.10;18.13
40850;BME280;26571;41.610;25.380;2023-02-20T10:59:51;98665.13;;;23.13;16.62
40850;BME280;26571;41.610;25.380;2023-02-20T11:02:21;98681.50;;;23.00;17.36
40850;BME280;26571;41.610;25.380;2023-02-20T11:05:06;98685.44;;;23.09;18.80
40850;BME280;26571;41.610;25.380;2023-02-20T11:07:33;98680.94;;;22.98;18.03
40850;BME280;26571;41.610;25.380;2023-02-20T11:09:59;98670.22;;;22.98;17.98
40850;BME280;26571;41.610;25.380;2023-02-20T11:12:40;98666.97;;;22.84;18.96
40850;BME280;26571;41.610;25.380;2023-02-20T11:15:19;98668.47;;;22.92;19.29
40850;BME280;26571;41.610;25.380;2023-02-20T11:17:49;98664.41;;;22.89;19.05
40850;BME280;26571;41.610;25.380;2023-02-20T11:22:56;98660.50;;;22.68;19.04
40850;BME280;26571;41.610;25.380;2023-02-20T11:25:25;98664.00;;;22.69;18.97
40850;BME280;26571;41.610;25.380;2023-02-20T11:27:57;98658.97;;;22.73;19.63
40850;BME280;26571;41.610;25.380;2023-02-20T11:30:33;98660.91;;;22.77;19.41
40850;BME280;26571;41.610;25.380;2023-02-20T11:35:34;98675.06;;;22.73;19.92
40850;BME280;26571;41.610;25.380;2023-02-20T11:40:59;98653.38;;;22.62;18.78
40850;BME280;26571;41.610;25.380;2023-02-20T11:43:45;98664.00;;;22.69;17.97
40850;BME280;26571;41.610;25.380;2023-02-20T11:46:19;98653.44;;;22.51;18.19
40850;BME280;26571;41.610;25.380;2023-02-20T11:51:41;98652.16;;;22.53;18.96
40850;BME280;26571;41.610;25.380;2023-02-20T11:56:35;98651.25;;;22.36;20.69
40850;BME280;26571;41.610;25.380;2023-02-20T12:01:53;98651.88;;;22.14;18.73
40850;BME280;26571;41.610;25.380;2023-02-20T12:04:22;98653.97;;;22.12;18.21
40850;BME280;26571;41.610;25.380;2023-02-20T12:06:48;98665.41;;;22.19;19.38
40850;BME280;26571;41.610;25.380;2023-02-20T12:09:17;98667.97;;;22.14;19.86
40850;BME280;26571;41.610;25.380;2023-02-20T12:11:43;98665.03;;;22.16;19.90
40850;BME280;26571;41.610;25.380;2023-02-20T12:14:11;98664.22;;;22.15;18.88
40850;BME280;26571;41.610;25.380;2023-02-20T12:19:28;98670.31;;;22.11;17.35
40850;BME280;26571;41.610;25.380;2023-02-20T12:43:53;98649.44;;;21.12;18.75
40850;BME280;26571;41.610;25.380;2023-02-20T12:47:04;98647.38;;;20.84;16.62
40850;BME280;26571;41.610;25.380;2023-02-20T13:00:36;98645.69;;;20.72;18.57
40850;BME280;26571;41.610;25.380;2023-02-20T13:03:10;98617.41;;;20.46;17.09
40850;BME280;26571;41.610;25.380;2023-02-20T13:05:39;98654.09;;;20.75;16.84
40850;BME280;26571;41.610;25.380;2023-02-20T13:08:31;98658.22;;;20.59;17.74
40850;BME280;26571;41.610;25.380;2023-02-20T13:11:00;98663.75;;;20.58;18.28
40850;BME280;26571;41.610;25.380;2023-02-20T13:13:37;98655.97;;;20.56;18.35
40850;BME280;26571;41.610;25.380;2023-02-20T13:16:12;98672.03;;;20.56;17.65
40850;BME280;26571;41.610;25.380;2023-02-20T13:18:49;98663.03;;;20.51;18.30
40850;BME280;26571;41.610;25.380;2023-02-20T13:21:17;98665.34;;;20.47;17.29
40850;BME280;26571;41.610;25.380;2023-02-20T13:23:46;98657.47;;;20.34;17.63
40850;BME280;26571;41.610;25.380;2023-02-20T13:29:31;98673.72;;;20.32;18.37
40850;BME280;26571;41.610;25.380;2023-02-20T13:32:04;98672.31;;;20.30;16.95
40850;BME280;26571;41.610;25.380;2023-02-20T13:34:45;98672.75;;;20.27;18.07
40850;BME280;26571;41.610;25.380;2023-02-20T13:43:23;98669.19;;;20.14;17.61
40850;BME280;26571;41.610;25.380;2023-02-20T13:48:45;98670.81;;;20.16;17.97
40850;BME280;26571;41.610;25.380;2023-02-20T13:53:43;98667.97;;;19.92;17.10
40850;BME280;26571;41.610;25.380;2023-02-20T13:56:23;98668.84;;;19.86;17.41
40850;BME280;26571;41.610;25.380;2023-02-20T13:58:50;98675.25;;;19.85;17.68
40850;BME280;26571;41.610;25.380;2023-02-20T14:01:17;98684.88;;;19.86;18.71
40850;BME280;26571;41.610;25.380;2023-02-20T14:03:43;98679.81;;;19.78;19.02
40850;BME280;26571;41.610;25.380;2023-02-20T14:08:35;98690.19;;;19.68;17.08
40850;BME280;26571;41.610;25.380;2023-02-20T14:11:24;98690.41;;;19.66;18.73
40850;BME280;26571;41.610;25.380;2023-02-20T14:13:51;98704.06;;;19.51;20.14
40850;BME280;26571;41.610;25.380;2023-02-20T14:16:33;98702.44;;;19.50;19.13
40850;BME280;26571;41.610;25.380;2023-02-20T14:19:03;98703.00;;;19.52;19.97
40850;BME280;26571;41.610;25.380;2023-02-20T14:21:32;98707.94;;;19.55;20.36
40850;BME280;26571;41.610;25.380;2023-02-20T14:26:42;98701.00;;;19.48;19.65
40850;BME280;26571;41.610;25.380;2023-02-20T14:29:20;98703.09;;;19.39;19.97
40850;BME280;26571;41.610;25.380;2023-02-20T14:31:49;98678.56;;;19.24;19.66
40850;BME280;26571;41.610;25.380;2023-02-20T14:42:15;98709.03;;;19.16;20.25
40850;BME280;26571;41.610;25.380;2023-02-20T14:44:47;98710.88;;;19.16;21.25
40850;BME280;26571;41.610;25.380;2023-02-20T14:47:14;98717.25;;;19.15;19.49
40850;BME280;26571;41.610;25.380;2023-02-20T14:49:41;98705.88;;;18.88;21.05
40850;BME280;26571;41.610;25.380;2023-02-20T14:54:36;98728.13;;;18.75;20.16
40850;BME280;26571;41.610;25.380;2023-02-20T14:57:02;98730.38;;;18.71;21.46
40850;BME280;26571;41.610;25.380;2023-02-20T15:04:53;98724.47;;;18.49;20.92
40850;BME280;26571;41.610;25.380;2023-02-20T15:07:22;98733.50;;;18.48;22.41
40850;BME280;26571;41.610;25.380;2023-02-20T15:09:51;98736.16;;;18.48;20.91